createdAt,value
2023-03-23T00:03:46.561Z,11.34
2023-03-23T00:07:47.283Z,11.26
2023-03-23T00:11:48.005Z,11.26
2023-03-23T00:15:48.767Z,11.01
2023-03-23T00:19:49.515Z,11.16
2023-03-23T00:23:50.237Z,11.23
2023-03-23T00:27:50.993Z,11.03
2023-03-23T00:31:51.763Z,11.07
2023-03-23T00:35:52.530Z,11.06
2023-03-23T00:39:53.204Z,11.17
2023-03-23T00:43:53.927Z,11.14
2023-03-23T00:47:54.641Z,11.25
2023-03-23T00:51:55.390Z,11.24
2023-03-23T00:55:56.130Z,11.14
2023-03-23T00:59:56.942Z,11.15
2023-03-23T01:03:58.683Z,11.25
2023-03-23T01:07:58.409Z,11.23
2023-03-23T01:11:59.145Z,11.24
2023-03-23T01:15:59.883Z,11.27
2023-03-23T01:20:00.596Z,11.25
2023-03-23T01:24:01.310Z,11.23
2023-03-23T01:28:02.002Z,11.29
2023-03-23T01:32:02.710Z,11.26
2023-03-23T01:36:03.475Z,11.08
2023-03-23T01:40:04.213Z,10.80
2023-03-23T01:44:04.993Z,10.90
2023-03-23T01:48:05.740Z,10.89
2023-03-23T01:52:06.518Z,10.80
2023-03-23T01:56:07.307Z,10.83
2023-03-23T02:00:08.080Z,10.81
2023-03-23T02:04:08.836Z,10.92
2023-03-23T02:08:09.585Z,11.00
2023-03-23T02:12:10.391Z,10.96
2023-03-23T02:16:11.154Z,10.25
2023-03-23T02:20:11.973Z,10.14
2023-03-23T02:24:12.780Z,10.31
2023-03-23T02:28:13.646Z,10.44
2023-03-23T02:32:14.537Z,10.66
2023-03-23T02:36:15.395Z,10.72
2023-03-23T02:40:16.405Z,10.56
2023-03-23T05:08:50.824Z,10.43
2023-03-23T05:16:52.706Z,9.68
2023-03-23T05:20:53.585Z,9.70
2023-03-23T05:24:54.509Z,9.62
2023-03-23T05:28:55.433Z,9.67
2023-03-23T05:32:57.353Z,9.70
2023-03-23T05:36:57.229Z,9.47
2023-03-23T05:40:58.098Z,9.15
2023-03-23T05:44:58.971Z,9.32
2023-03-23T05:48:59.995Z,9.67
2023-03-23T05:53:00.959Z,9.79
2023-03-23T05:57:02.069Z,9.51
2023-03-23T06:01:03.140Z,9.19
2023-03-23T06:05:04.183Z,9.33
2023-03-23T06:09:06.620Z,9.44
2023-03-23T06:13:06.273Z,9.69
2023-03-23T06:17:07.322Z,9.81
2023-03-23T06:21:08.387Z,9.79
2023-03-23T06:29:09.903Z,9.80
2023-03-23T06:33:10.719Z,10.04
2023-03-23T06:37:11.408Z,10.25
2023-03-23T06:41:12.182Z,10.46
2023-03-23T06:45:13.062Z,10.62
2023-03-23T06:49:13.926Z,10.70
2023-03-23T06:53:14.738Z,10.46
2023-03-23T06:57:15.575Z,10.47
2023-03-23T07:01:16.473Z,10.82
2023-03-23T07:05:17.417Z,10.93
2023-03-23T07:09:18.360Z,11.03
2023-03-23T07:13:19.265Z,11.26
2023-03-23T07:17:20.352Z,11.12
2023-03-23T07:21:20.991Z,10.88
2023-03-23T07:25:21.794Z,11.15
2023-03-23T07:29:22.754Z,11.41
2023-03-23T07:33:23.590Z,11.04
2023-03-23T07:37:24.453Z,11.28
2023-03-23T07:41:25.359Z,11.50
2023-03-23T07:45:27.196Z,11.72
2023-03-23T07:49:27.100Z,11.86
2023-03-23T07:53:27.840Z,11.99
2023-03-23T07:57:28.544Z,12.17
2023-03-23T08:01:29.204Z,12.22
2023-03-23T08:05:29.852Z,12.39
2023-03-23T08:09:30.551Z,12.50
2023-03-23T08:13:31.245Z,12.46
2023-03-23T08:17:31.872Z,12.63
2023-03-23T08:21:33.573Z,12.74
2023-03-23T08:25:33.293Z,12.64
2023-03-23T08:29:34.173Z,12.77
2023-03-23T08:33:34.864Z,12.82
2023-03-23T08:37:35.557Z,12.87
2023-03-23T08:41:36.234Z,13.07
2023-03-23T08:45:36.846Z,13.26
2023-03-23T08:49:37.495Z,13.51
2023-03-23T08:53:38.192Z,13.58
2023-03-23T08:57:38.880Z,13.74
2023-03-23T09:01:39.543Z,13.84
2023-03-23T09:05:40.392Z,14.04
2023-03-23T09:09:41.633Z,14.19
2023-03-23T09:13:42.572Z,14.35
2023-03-23T09:17:42.078Z,14.43
2023-03-23T09:21:43.201Z,14.53
2023-03-23T09:25:43.458Z,14.52
2023-03-23T09:29:43.534Z,14.47
2023-03-23T09:33:47.162Z,14.81
2023-03-23T09:37:44.423Z,15.12
2023-03-23T09:41:44.892Z,15.24
2023-03-23T09:45:45.386Z,15.44
2023-03-23T09:53:46.225Z,15.79
2023-03-23T11:09:54.052Z,17.22
2023-03-23T11:13:54.385Z,17.32
2023-03-23T11:17:54.707Z,17.38
2023-03-23T11:21:55.221Z,17.35
2023-03-23T11:25:55.731Z,17.57
2023-03-23T11:29:58.685Z,17.72
2023-03-23T11:34:05.977Z,17.83
2023-03-23T11:57:58.412Z,18.55
2023-03-23T12:05:58.994Z,18.58
2023-03-23T12:09:59.304Z,18.73
2023-03-23T12:13:59.679Z,18.81
2023-03-23T12:18:00.116Z,19.16
2023-03-23T12:22:00.533Z,19.35
2023-03-23T12:30:01.266Z,19.74
2023-03-23T13:02:04.124Z,20.37
2023-03-23T13:10:05.385Z,21.26
2023-03-23T13:14:04.859Z,20.68
2023-03-23T13:26:05.817Z,20.68
2023-03-23T14:50:11.337Z,22.72
2023-03-23T15:10:10.823Z,22.11
2023-03-23T15:14:10.975Z,21.90
2023-03-23T15:18:11.365Z,21.56
2023-03-23T15:22:12.401Z,21.36
2023-03-23T15:26:11.641Z,21.14
2023-03-23T15:30:11.745Z,21.07
2023-03-23T15:34:11.892Z,21.03
2023-03-23T15:38:12.059Z,20.91
2023-03-23T15:42:12.254Z,20.68
2023-03-23T15:46:12.435Z,20.47
2023-03-23T15:50:12.617Z,20.43
2023-03-23T15:58:13.003Z,20.25
2023-03-23T16:02:13.305Z,20.15
2023-03-23T16:06:13.396Z,20.02
2023-03-23T16:10:14.602Z,19.99
2023-03-23T16:14:13.792Z,19.92
2023-03-23T16:18:14.107Z,19.83
2023-03-23T16:22:15.162Z,19.74
2023-03-23T16:26:14.762Z,19.63
2023-03-23T16:30:15.121Z,19.59
2023-03-23T16:34:15.518Z,19.57
2023-03-23T16:38:16.370Z,19.55
2023-03-23T16:42:16.352Z,19.47
2023-03-23T16:46:16.858Z,19.41
2023-03-23T16:50:17.241Z,19.34
2023-03-23T16:54:17.616Z,19.22
2023-03-23T16:58:18.330Z,19.16
2023-03-23T17:02:18.563Z,19.06
2023-03-23T17:06:18.983Z,18.94
2023-03-23T17:10:19.229Z,18.88
2023-03-23T17:14:19.449Z,18.83
2023-03-23T17:18:19.658Z,18.73
2023-03-23T17:22:19.892Z,18.58
2023-03-23T17:26:20.135Z,18.40
2023-03-23T17:30:20.851Z,18.39
2023-03-23T17:34:20.661Z,18.28
2023-03-23T17:38:21.351Z,18.20
2023-03-23T17:42:21.219Z,18.13
2023-03-23T17:46:21.533Z,18.07
2023-03-23T17:50:21.857Z,17.94
2023-03-23T17:54:22.125Z,17.88
2023-03-23T17:58:22.530Z,17.82
2023-03-23T18:02:22.877Z,17.69
2023-03-23T18:06:23.038Z,17.61
2023-03-23T18:10:23.422Z,17.50
2023-03-23T18:14:23.761Z,17.42
2023-03-23T18:18:24.053Z,17.42
2023-03-23T18:22:24.393Z,17.37
2023-03-23T18:26:24.750Z,17.31
2023-03-23T18:30:25.109Z,17.25
2023-03-23T18:34:25.463Z,17.22
2023-03-23T18:38:26.001Z,17.17
2023-03-23T18:42:26.614Z,17.09
2023-03-23T18:46:27.079Z,17.04
2023-03-23T18:50:27.682Z,17.00
2023-03-23T18:54:28.200Z,16.93
2023-03-23T18:58:28.778Z,16.87
2023-03-23T19:02:29.461Z,16.84
2023-03-23T19:06:29.934Z,16.83
2023-03-23T19:10:30.889Z,16.78
2023-03-23T19:14:31.184Z,16.72
2023-03-23T19:18:31.796Z,16.70
2023-03-23T19:22:32.440Z,16.66
2023-03-23T19:26:36.695Z,16.63
2023-03-23T19:30:33.419Z,16.59
2023-03-23T19:34:33.897Z,16.55
2023-03-23T19:38:34.275Z,16.52
2023-03-23T19:42:34.643Z,16.47
2023-03-23T19:46:35.035Z,16.42
2023-03-23T19:50:35.409Z,16.38
2023-03-23T19:54:35.853Z,16.32
2023-03-23T19:58:36.192Z,16.27
2023-03-23T20:02:37.264Z,16.24
2023-03-23T20:06:37.684Z,16.24
2023-03-23T20:10:37.409Z,16.22
2023-03-23T20:14:37.802Z,16.19
2023-03-23T20:18:38.380Z,16.13
2023-03-23T20:22:38.835Z,16.05
2023-03-23T20:26:39.180Z,15.95
2023-03-23T20:30:39.582Z,15.91
2023-03-23T20:34:40.413Z,15.79
2023-03-23T20:38:40.435Z,15.75
2023-03-23T20:42:40.872Z,15.76
2023-03-23T20:46:41.316Z,15.66
2023-03-23T20:50:41.764Z,15.57
2023-03-23T20:54:42.198Z,15.48
2023-03-23T20:58:42.657Z,15.41
2023-03-23T21:02:43.164Z,15.38
2023-03-23T21:06:43.576Z,15.31
2023-03-23T21:10:45.150Z,15.25
2023-03-23T21:14:44.531Z,15.21
2023-03-23T21:18:45.020Z,15.17
2023-03-23T21:22:45.516Z,15.12
2023-03-23T21:26:46.014Z,15.04
2023-03-23T21:30:46.798Z,14.99
2023-03-23T21:34:47.204Z,14.95
2023-03-23T21:38:47.888Z,14.94
2023-03-23T21:42:48.562Z,14.94
2023-03-23T21:46:49.260Z,14.87
2023-03-23T21:50:49.882Z,14.87
2023-03-23T21:54:50.576Z,14.83
2023-03-23T21:58:51.285Z,14.80
2023-03-23T22:02:51.997Z,14.75
2023-03-23T22:06:52.664Z,14.72
2023-03-23T22:11:01.387Z,14.75
2023-03-23T22:14:54.813Z,14.71
2023-03-23T22:18:54.301Z,14.72
2023-03-23T22:22:54.931Z,14.70
2023-03-23T22:26:55.619Z,14.67
2023-03-23T22:30:56.333Z,14.67
2023-03-23T22:34:57.463Z,14.62
2023-03-23T22:38:57.760Z,14.57
2023-03-23T22:42:58.485Z,14.56
2023-03-23T22:46:59.945Z,14.49
2023-03-23T22:50:59.987Z,14.44
2023-03-23T22:55:00.680Z,14.38
2023-03-23T22:59:01.357Z,14.37
2023-03-23T23:03:02.123Z,14.35
2023-03-23T23:07:12.585Z,14.27
2023-03-23T23:11:03.330Z,14.26
2023-03-23T23:15:03.835Z,14.21
2023-03-23T23:19:04.438Z,14.18
2023-03-23T23:23:05.464Z,14.17
2023-03-23T23:27:05.943Z,14.14
2023-03-23T23:31:06.513Z,14.04
2023-03-23T23:35:07.056Z,13.95
2023-03-23T23:39:07.560Z,13.92
2023-03-23T23:43:08.101Z,13.87
2023-03-23T23:47:08.640Z,13.83
2023-03-23T23:51:09.466Z,13.75
2023-03-23T23:55:09.692Z,13.66
2023-03-23T23:59:10.229Z,13.65
